Time;durP1;ratioP1;P1;durP2;ratioP2;P2;SDS_P1;SDS_P2;PMS_P1;PMS_P2;Temp;Humidity;BMP_temperature;BMP_pressure;BME280_temperature;BME280_humidity;BME280_pressure;Samples;Min_cycle;Max_cycle;Signal;HPM_P1;HPM_P2
2021/12/04 00:01:09;;;;;;;16.47;9.73;;;0.40;99.90;;;;;;10543786;28;20216;-79
2021/12/04 00:06:37;;;;;;;13.47;8.43;;;0.50;99.90;;;;;;10550001;28;20247;-79
2021/12/04 00:12:03;;;;;;;14.67;9.47;;;0.50;99.90;;;;;;10518887;28;20252;-78
2021/12/04 00:17:25;;;;;;;16.60;9.47;;;0.50;99.90;;;;;;10518518;28;20197;-77
2021/12/04 00:22:47;;;;;;;18.00;9.43;;;0.50;99.90;;;;;;10548418;28;20212;-77
2021/12/04 00:28:09;;;;;;;18.10;9.57;;;0.60;99.90;;;;;;10545689;28;20197;-78
2021/12/04 00:33:32;;;;;;;18.07;10.50;;;0.60;99.90;;;;;;10530721;28;20224;-78
2021/12/04 00:50:15;;;;;;;20.83;11.47;;;0.50;99.90;;;;;;10530563;28;20209;-78
2021/12/04 00:55:37;;;;;;;17.13;11.07;;;0.50;99.90;;;;;;10546683;28;20228;-79
2021/12/04 01:00:59;;;;;;;18.57;11.30;;;0.60;99.90;;;;;;10515078;28;20277;-78
2021/12/04 01:06:22;;;;;;;20.10;11.50;;;0.50;99.90;;;;;;10530578;28;20205;-78
2021/12/04 01:11:45;;;;;;;18.00;10.17;;;0.50;99.90;;;;;;10546709;28;20222;-78
2021/12/04 01:17:08;;;;;;;21.17;11.10;;;0.50;99.90;;;;;;10547379;28;20218;-77
2021/12/04 01:22:33;;;;;;;15.97;10.47;;;0.50;99.90;;;;;;10530323;28;20212;-78
2021/12/04 01:27:55;;;;;;;15.30;10.20;;;0.40;99.90;;;;;;10558960;28;20275;-78
2021/12/04 01:33:16;;;;;;;17.67;10.73;;;0.40;99.90;;;;;;10561772;28;20244;-78
2021/12/04 01:38:39;;;;;;;16.10;9.70;;;0.40;99.90;;;;;;10547788;28;20239;-78
2021/12/04 01:44:03;;;;;;;17.00;10.30;;;0.40;99.90;;;;;;10546453;28;20211;-78
2021/12/04 01:49:25;;;;;;;18.03;10.73;;;0.40;99.90;;;;;;10546650;28;20487;-79
2021/12/04 01:54:50;;;;;;;16.73;10.20;;;0.50;99.90;;;;;;10532430;28;20236;-79
2021/12/04 02:00:12;;;;;;;16.67;9.67;;;0.50;99.90;;;;;;10544481;28;20487;-78
2021/12/04 02:05:38;;;;;;;15.03;9.70;;;0.40;99.90;;;;;;10544430;28;20511;-79
2021/12/04 02:11:01;;;;;;;14.07;9.87;;;0.40;99.90;;;;;;10569654;28;20201;-78
2021/12/04 02:16:23;;;;;;;17.57;10.23;;;0.40;99.90;;;;;;10537473;28;20512;-78
2021/12/04 02:21:45;;;;;;;20.90;10.70;;;0.40;99.90;;;;;;10554207;28;20227;-78
2021/12/04 02:27:09;;;;;;;16.87;10.63;;;0.40;99.90;;;;;;10548538;28;20197;-78
2021/12/04 02:32:31;;;;;;;13.00;9.20;;;0.30;99.90;;;;;;10522799;28;20227;-79
2021/12/04 02:37:54;;;;;;;17.87;9.87;;;0.40;99.90;;;;;;10549661;28;20228;-79
2021/12/04 02:43:17;;;;;;;15.77;10.30;;;0.50;99.90;;;;;;10547672;28;20259;-79
2021/12/04 02:48:41;;;;;;;19.23;10.90;;;0.30;99.90;;;;;;10550656;28;20248;-78
2021/12/04 02:54:05;;;;;;;20.03;10.77;;;0.40;99.90;;;;;;10532855;28;20552;-78
2021/12/04 02:59:27;;;;;;;21.70;11.30;;;0.40;99.90;;;;;;10533071;28;20197;-78
2021/12/04 03:04:52;;;;;;;23.13;11.00;;;0.50;99.90;;;;;;10527950;28;20195;-79
2021/12/04 03:10:14;;;;;;;19.73;10.40;;;0.50;99.90;;;;;;10532539;28;20201;-78
2021/12/04 03:15:38;;;;;;;18.43;9.73;;;0.50;99.90;;;;;;10535628;28;20258;-78
2021/12/04 03:21:06;;;;;;;16.23;9.90;;;0.50;99.90;;;;;;10536866;28;20197;-78
2021/12/04 03:26:28;;;;;;;21.30;10.80;;;0.50;99.90;;;;;;10534683;28;20388;-78
2021/12/04 03:32:12;;;;;;;17.47;9.50;;;0.50;99.90;;;;;;10532334;28;20331;-77
2021/12/04 03:43:14;;;;;;;16.17;9.37;;;0.40;99.90;;;;;;10548155;28;20251;-79
2021/12/04 03:53:58;;;;;;;15.17;9.87;;;0.40;99.90;;;;;;10522177;28;20411;-78
2021/12/04 03:59:20;;;;;;;18.13;9.77;;;0.40;99.90;;;;;;10561689;28;20421;-79
2021/12/04 04:04:43;;;;;;;13.17;9.53;;;0.40;99.90;;;;;;10547207;28;20428;-79
2021/12/04 04:10:07;;;;;;;16.33;9.57;;;0.40;99.90;;;;;;10516864;28;20219;-78
2021/12/04 04:15:29;;;;;;;15.00;9.50;;;0.30;99.90;;;;;;10549579;28;20254;-79
2021/12/04 04:20:52;;;;;;;15.60;10.33;;;0.40;99.90;;;;;;10518832;28;20197;-79
2021/12/04 04:26:14;;;;;;;16.90;9.63;;;0.40;99.90;;;;;;10531476;28;20275;-78
2021/12/04 04:31:45;;;;;;;15.53;10.13;;;0.40;99.90;;;;;;10534362;28;20440;-78
2021/12/04 04:37:21;;;;;;;17.97;9.47;;;0.40;99.90;;;;;;10548387;28;20257;-78
2021/12/04 05:16:40;;;;;;;13.47;9.43;;;0.50;99.90;;;;;;10547298;28;20264;-79
2021/12/04 05:22:02;;;;;;;13.30;10.10;;;0.50;99.90;;;;;;10530100;28;20198;-78
2021/12/04 05:27:24;;;;;;;16.57;10.63;;;0.50;99.90;;;;;;10525946;28;20211;-78
2021/12/04 05:32:46;;;;;;;17.43;10.50;;;0.50;99.90;;;;;;10546950;28;20437;-78
2021/12/04 05:38:08;;;;;;;15.93;10.17;;;0.50;99.90;;;;;;10546377;28;20237;-79
2021/12/04 05:43:31;;;;;;;13.57;9.80;;;0.60;99.90;;;;;;10543471;28;20341;-78
2021/12/04 05:48:58;;;;;;;15.80;10.90;;;0.70;99.90;;;;;;10543401;28;20207;-79
2021/12/04 05:54:45;;;;;;;17.53;11.13;;;0.60;99.90;;;;;;10545948;28;20245;-79
2021/12/04 06:00:16;;;;;;;21.20;12.90;;;0.70;99.90;;;;;;10543831;28;20200;-79
2021/12/04 06:05:38;;;;;;;15.77;10.77;;;0.70;99.90;;;;;;10545833;28;20194;-79
2021/12/04 06:11:01;;;;;;;16.67;10.90;;;0.80;99.90;;;;;;10529175;28;20197;-79
2021/12/04 06:16:24;;;;;;;12.43;9.57;;;0.80;99.90;;;;;;10561031;28;20227;-78
2021/12/04 06:27:26;;;;;;;15.07;11.43;;;0.90;99.90;;;;;;10530053;28;20391;-78
2021/12/04 06:32:50;;;;;;;16.90;11.80;;;0.90;99.90;;;;;;10560334;28;20214;-80
2021/12/04 06:38:15;;;;;;;28.13;16.20;;;0.90;99.90;;;;;;10545267;28;20283;-79
2021/12/04 06:43:40;;;;;;;19.03;13.23;;;0.90;99.90;;;;;;10542494;28;20204;-79
2021/12/04 06:49:08;;;;;;;80.37;40.00;;;0.80;99.90;;;;;;10559978;28;20202;-79
2021/12/04 06:54:37;;;;;;;49.37;25.57;;;0.80;99.90;;;;;;10530096;28;20523;-79
2021/12/04 06:59:59;;;;;;;30.40;16.00;;;0.90;99.90;;;;;;10552809;28;20219;-79
2021/12/04 07:05:27;;;;;;;26.93;17.17;;;0.90;99.90;;;;;;10549160;28;20202;-79
2021/12/04 07:10:49;;;;;;;35.57;21.47;;;1.00;99.90;;;;;;10538310;28;20197;-79
2021/12/04 07:16:15;;;;;;;24.47;17.20;;;1.00;99.90;;;;;;10534668;28;20221;-78
2021/12/04 07:21:38;;;;;;;27.33;18.70;;;1.10;99.90;;;;;;10534018;28;20248;-79
2021/12/04 07:27:01;;;;;;;31.60;21.90;;;1.10;99.90;;;;;;10551603;28;20190;-79
2021/12/04 07:32:25;;;;;;;24.73;16.90;;;1.10;99.90;;;;;;10534087;28;20278;-80
2021/12/04 07:37:47;;;;;;;24.77;16.23;;;1.10;99.90;;;;;;10537138;28;20230;-79
2021/12/04 07:43:12;;;;;;;37.73;20.83;;;1.20;99.90;;;;;;10551024;28;20194;-78
2021/12/04 07:48:34;;;;;;;41.50;24.13;;;1.20;99.90;;;;;;10547592;28;20586;-79
2021/12/04 07:53:57;;;;;;;27.07;16.80;;;1.30;99.90;;;;;;10546848;28;20431;-79
2021/12/04 07:59:19;;;;;;;31.10;18.20;;;1.30;99.90;;;;;;10545864;28;20268;-78
2021/12/04 08:04:41;;;;;;;33.40;19.00;;;1.40;99.90;;;;;;10564041;28;20497;-79
2021/12/04 08:10:04;;;;;;;22.83;13.90;;;1.40;99.90;;;;;;10565110;28;20200;-78
2021/12/04 08:15:27;;;;;;;19.27;11.03;;;1.50;99.90;;;;;;10546365;28;20231;-78
2021/12/04 08:20:49;;;;;;;15.97;11.60;;;1.50;99.90;;;;;;10549538;28;20190;-78
2021/12/04 08:26:12;;;;;;;29.20;19.97;;;1.50;99.90;;;;;;10563548;28;20201;-79
2021/12/04 08:31:35;;;;;;;34.77;23.70;;;1.50;99.90;;;;;;10527805;28;20201;-78
2021/12/04 08:36:57;;;;;;;83.33;40.03;;;1.50;99.90;;;;;;10545489;28;20252;-78
2021/12/04 08:42:20;;;;;;;28.43;19.10;;;1.50;99.90;;;;;;10548625;28;20194;-78
2021/12/04 08:47:42;;;;;;;38.30;24.40;;;1.50;99.90;;;;;;10545429;28;20409;-78
2021/12/04 08:53:06;;;;;;;18.30;13.37;;;1.50;99.90;;;;;;10528757;28;20390;-78
2021/12/04 08:58:28;;;;;;;30.00;20.63;;;1.60;99.90;;;;;;10562835;28;20209;-78
2021/12/04 09:03:57;;;;;;;40.60;25.93;;;1.70;99.90;;;;;;10545036;28;20247;-78
2021/12/04 09:09:20;;;;;;;39.37;23.37;;;1.70;99.90;;;;;;10547393;28;20527;-78
2021/12/04 09:14:44;;;;;;;89.77;44.97;;;1.70;99.90;;;;;;10546863;28;20289;-78
2021/12/04 09:20:11;;;;;;;35.67;21.67;;;1.80;99.90;;;;;;10544208;28;20204;-78
2021/12/04 09:25:37;;;;;;;21.37;14.97;;;1.90;99.90;;;;;;10540826;28;20214;-79
2021/12/04 09:31:39;;;;;;;20.73;13.73;;;1.80;99.90;;;;;;10561897;28;20203;-78
2021/12/04 10:00:18;;;;;;;19.93;12.93;;;2.10;99.90;;;;;;10542888;28;20204;-78
2021/12/04 10:33:20;;;;;;;18.57;12.13;;;2.10;99.90;;;;;;10547845;28;20238;-78
2021/12/04 10:38:44;;;;;;;27.33;13.23;;;2.20;99.90;;;;;;10536690;28;20277;-78
2021/12/04 10:44:16;;;;;;;28.70;16.27;;;2.20;99.90;;;;;;10550648;28;20430;-78
2021/12/04 10:49:55;;;;;;;28.80;15.77;;;2.20;99.90;;;;;;10553473;28;20419;-78
2021/12/04 11:01:14;;;;;;;26.73;15.63;;;2.30;99.90;;;;;;10549764;28;20203;-80
2021/12/04 11:36:01;;;;;;;24.07;14.80;;;2.40;99.90;;;;;;10405105;28;20227;-79
2021/12/04 11:46:45;;;;;;;19.80;11.67;;;2.40;99.90;;;;;;10538983;28;20211;-78
2021/12/04 11:52:16;;;;;;;23.17;11.43;;;2.40;99.90;;;;;;10526567;28;20198;-78
2021/12/04 11:57:38;;;;;;;17.37;10.77;;;2.40;99.90;;;;;;10547510;28;20245;-79
2021/12/04 12:03:11;;;;;;;21.50;13.40;;;2.40;99.90;;;;;;10565374;28;20450;-79
2021/12/04 12:08:41;;;;;;;26.13;15.60;;;2.30;99.90;;;;;;10549892;28;20198;-79
2021/12/04 12:14:11;;;;;;;43.57;22.83;;;2.30;99.90;;;;;;10549458;28;20442;-78
2021/12/04 12:19:39;;;;;;;61.20;29.03;;;2.30;99.90;;;;;;10518737;28;20198;-78
2021/12/04 12:25:24;;;;;;;64.67;27.63;;;2.30;99.90;;;;;;10518230;28;20198;-78
2021/12/04 12:36:32;;;;;;;19.53;12.47;;;2.20;99.90;;;;;;10544333;28;20272;-79
2021/12/04 12:41:55;;;;;;;18.97;10.80;;;2.30;99.90;;;;;;10531687;28;20202;-79
2021/12/04 12:47:21;;;;;;;34.73;17.00;;;2.30;99.90;;;;;;10548401;28;20203;-79
2021/12/04 12:52:44;;;;;;;18.67;11.63;;;2.20;99.90;;;;;;10559924;28;20201;-79
2021/12/04 12:58:19;;;;;;;47.67;24.10;;;2.20;99.90;;;;;;10531030;28;20367;-79
2021/12/04 13:15:36;;;;;;;29.77;15.80;;;2.00;99.90;;;;;;10526626;28;20245;-78
2021/12/04 13:21:10;;;;;;;29.40;14.70;;;2.10;99.90;;;;;;10530194;28;20202;-78
2021/12/04 13:26:35;;;;;;;26.57;14.90;;;2.00;99.90;;;;;;10533168;28;20554;-79
2021/12/04 13:31:58;;;;;;;33.60;18.87;;;2.00;99.90;;;;;;10524692;28;20273;-79
2021/12/04 13:37:27;;;;;;;31.23;19.20;;;2.00;99.90;;;;;;10543421;28;20246;-78
2021/12/04 13:42:49;;;;;;;25.27;15.07;;;2.00;99.90;;;;;;10529982;28;20533;-80
2021/12/04 13:48:12;;;;;;;26.60;15.23;;;2.00;99.90;;;;;;10546426;28;20296;-77
2021/12/04 13:53:37;;;;;;;59.27;26.67;;;2.00;99.90;;;;;;10532992;28;20225;-79
2021/12/04 13:59:03;;;;;;;38.80;23.17;;;1.90;99.90;;;;;;10539883;28;20208;-79
2021/12/04 14:04:25;;;;;;;65.40;33.37;;;1.90;99.90;;;;;;10533245;28;20248;-79
2021/12/04 14:09:47;;;;;;;44.23;21.80;;;1.90;99.90;;;;;;10555034;28;20202;-79
2021/12/04 14:15:12;;;;;;;46.20;22.33;;;1.90;99.90;;;;;;10551653;28;20271;-79
2021/12/04 14:20:37;;;;;;;62.03;26.33;;;1.90;99.90;;;;;;10550689;28;20579;-77
2021/12/04 14:26:03;;;;;;;58.40;23.63;;;1.90;99.90;;;;;;10537471;28;20539;-78
2021/12/04 14:31:26;;;;;;;37.10;18.60;;;1.80;99.90;;;;;;10540152;28;20288;-79
2021/12/04 14:37:05;;;;;;;26.13;14.80;;;1.80;99.90;;;;;;10535052;28;20255;-79
2021/12/04 14:42:30;;;;;;;30.87;16.90;;;1.80;99.90;;;;;;10568751;28;20202;-80
2021/12/04 14:48:00;;;;;;;74.87;25.37;;;1.70;99.90;;;;;;10553295;28;20198;-79
2021/12/04 14:53:22;;;;;;;58.73;20.17;;;1.70;99.90;;;;;;10567059;28;20198;-77
2021/12/04 14:58:45;;;;;;;56.97;21.23;;;1.70;99.90;;;;;;10553192;28;20423;-77
2021/12/04 15:04:09;;;;;;;29.50;15.23;;;1.80;99.90;;;;;;10532302;28;20269;-79
2021/12/04 15:09:32;;;;;;;27.10;17.30;;;1.80;99.90;;;;;;10532186;28;20281;-77
2021/12/04 15:15:13;;;;;;;28.20;15.37;;;1.80;99.90;;;;;;10551556;28;20222;-78
2021/12/04 15:20:39;;;;;;;23.07;14.67;;;1.80;99.90;;;;;;10548577;28;20205;-80
2021/12/04 15:26:13;;;;;;;19.07;12.77;;;1.70;99.90;;;;;;10551868;28;20229;-78
2021/12/04 15:31:40;;;;;;;26.23;14.53;;;1.70;99.90;;;;;;10547594;28;20198;-80
2021/12/04 15:37:05;;;;;;;27.37;14.90;;;1.80;99.90;;;;;;10551014;28;20241;-80
2021/12/04 15:42:29;;;;;;;32.77;16.23;;;1.80;99.90;;;;;;10537482;28;20434;-77
2021/12/04 15:48:29;;;;;;;39.03;19.13;;;1.80;99.90;;;;;;10534084;28;20236;-78
2021/12/04 15:53:53;;;;;;;33.60;16.63;;;1.80;99.90;;;;;;10549049;28;20226;-78
2021/12/04 15:59:17;;;;;;;35.47;15.97;;;1.90;99.90;;;;;;10533469;28;20210;-77
2021/12/04 16:04:40;;;;;;;20.93;11.63;;;1.90;99.90;;;;;;10565612;28;20203;-77
2021/12/04 16:10:15;;;;;;;32.63;16.67;;;1.90;99.90;;;;;;10550394;28;20496;-77
2021/12/04 16:15:38;;;;;;;46.47;20.60;;;1.90;99.90;;;;;;10546498;28;20230;-79
2021/12/04 16:21:01;;;;;;;46.97;19.30;;;1.90;99.90;;;;;;10512442;28;20278;-79
2021/12/04 16:26:28;;;;;;;75.67;27.57;;;2.00;99.90;;;;;;10563438;28;20204;-79
2021/12/04 16:32:11;;;;;;;83.90;27.77;;;1.90;99.90;;;;;;10545623;28;20543;-79
2021/12/04 16:43:09;;;;;;;40.63;19.87;;;1.90;99.90;;;;;;10563722;28;20196;-79
2021/12/04 16:48:36;;;;;;;40.20;22.20;;;2.00;99.90;;;;;;10525054;28;20390;-79
2021/12/04 16:59:50;;;;;;;24.50;15.27;;;1.90;99.90;;;;;;10547935;28;20501;-79
2021/12/04 17:05:13;;;;;;;32.13;19.30;;;1.90;99.90;;;;;;10531167;28;20198;-79
2021/12/04 17:10:36;;;;;;;50.70;28.30;;;1.90;99.90;;;;;;10544574;28;20231;-79
2021/12/04 17:15:59;;;;;;;56.87;29.00;;;1.90;99.90;;;;;;10547732;28;20249;-79
2021/12/04 17:21:21;;;;;;;45.20;23.87;;;1.90;99.90;;;;;;10529952;28;20204;-78
2021/12/04 17:26:45;;;;;;;81.00;37.47;;;1.90;99.90;;;;;;10560713;28;20190;-79
2021/12/04 17:32:08;;;;;;;68.80;35.03;;;1.80;99.90;;;;;;10533970;28;20214;-79
2021/12/04 17:37:30;;;;;;;47.67;25.87;;;1.80;99.90;;;;;;10517824;28;20293;-79
2021/12/04 17:42:53;;;;;;;53.20;31.20;;;1.90;99.90;;;;;;10527318;28;20236;-79
2021/12/04 17:48:15;;;;;;;79.93;41.10;;;1.90;99.90;;;;;;10526138;28;20225;-78
2021/12/04 17:53:38;;;;;;;93.60;41.97;;;1.90;99.90;;;;;;10546311;28;20208;-79
2021/12/04 17:59:01;;;;;;;102.90;45.63;;;1.90;99.90;;;;;;10543379;28;20203;-78
2021/12/04 18:04:27;;;;;;;81.60;39.47;;;1.90;99.90;;;;;;10542681;28;20198;-79
2021/12/04 18:09:51;;;;;;;59.93;32.50;;;1.80;99.90;;;;;;10561239;28;20210;-78
2021/12/04 18:15:19;;;;;;;50.20;28.93;;;1.80;99.90;;;;;;10543086;28;20305;-78
2021/12/04 18:20:43;;;;;;;50.97;28.20;;;1.90;99.90;;;;;;10529133;28;20206;-79
2021/12/04 18:26:06;;;;;;;49.87;28.80;;;1.80;99.90;;;;;;10540593;28;20224;-79
2021/12/04 18:31:28;;;;;;;50.63;27.87;;;1.80;99.90;;;;;;10528013;28;20239;-79
2021/12/04 18:36:52;;;;;;;54.23;29.83;;;1.80;99.90;;;;;;10542541;28;20261;-78
2021/12/04 18:42:14;;;;;;;67.77;34.03;;;1.90;99.90;;;;;;10528791;28;20524;-79
2021/12/04 18:47:36;;;;;;;53.00;28.77;;;1.80;99.90;;;;;;10547141;28;20194;-78
2021/12/04 18:52:59;;;;;;;53.73;28.73;;;1.90;99.90;;;;;;10535977;28;20248;-77
2021/12/04 18:58:21;;;;;;;50.07;26.20;;;1.90;99.90;;;;;;10536002;28;20270;-78
2021/12/04 19:03:44;;;;;;;51.00;26.70;;;1.80;99.90;;;;;;10535299;28;20196;-77
2021/12/04 19:09:10;;;;;;;46.83;24.53;;;1.90;99.90;;;;;;10535421;28;20531;-77
2021/12/04 19:14:33;;;;;;;54.13;27.47;;;1.90;99.90;;;;;;10535474;28;20256;-79
2021/12/04 19:19:56;;;;;;;45.77;26.40;;;1.90;99.90;;;;;;10567392;28;20198;-79
2021/12/04 19:25:25;;;;;;;65.47;37.10;;;2.00;99.90;;;;;;10551970;28;20225;-78
2021/12/04 19:31:03;;;;;;;54.13;29.27;;;2.00;99.90;;;;;;10547773;28;20199;-78
2021/12/04 19:59:20;;;;;;;52.67;27.83;;;1.80;99.90;;;;;;10461826;28;20208;-79
2021/12/04 20:15:39;;;;;;;58.17;31.07;;;1.80;99.90;;;;;;10460428;28;20239;-79
2021/12/04 20:21:12;;;;;;;52.13;29.07;;;1.90;99.90;;;;;;10465641;28;20192;-79
2021/12/04 20:26:44;;;;;;;51.10;27.43;;;1.90;99.90;;;;;;10564595;28;20388;-79
2021/12/04 21:50:49;;;;;;;51.00;27.20;;;1.80;99.90;;;;;;10376162;28;20216;-79
2021/12/04 22:24:15;;;;;;;58.47;29.50;;;1.70;99.90;;;;;;10564368;28;20257;-79
2021/12/04 22:58:10;;;;;;;58.13;29.07;;;1.70;99.90;;;;;;10536185;28;20229;-76
2021/12/04 23:15:21;;;;;;;64.83;31.50;;;1.80;99.90;;;;;;10567697;28;20264;-80
